createdAt,value
2018-10-19T00:00:10.094Z,102473.39
2018-10-19T00:02:38.967Z,102474.19
2018-10-19T00:05:07.872Z,102469.27
2018-10-19T00:07:36.987Z,102473.55
2018-10-19T00:10:06.881Z,102462.99
2018-10-19T00:12:35.768Z,102466.50
2018-10-19T00:15:04.986Z,102461.86
2018-10-19T00:17:34.121Z,102459.67
2018-10-19T00:20:03.038Z,102461.54
2018-10-19T00:22:32.247Z,102472.05
2018-10-19T00:25:01.014Z,102474.16
2018-10-19T00:27:29.953Z,102469.02
2018-10-19T00:29:58.755Z,102470.04
2018-10-19T00:32:27.933Z,102475.41
2018-10-19T00:34:57.244Z,102472.41
2018-10-19T00:37:26.095Z,102473.20
2018-10-19T00:39:55.029Z,102474.52
2018-10-19T00:42:23.938Z,102473.13
2018-10-19T00:44:53.389Z,102474.45
2018-10-19T00:47:22.220Z,102473.05
2018-10-19T00:49:51.080Z,102475.20
2018-10-19T00:52:20.418Z,102464.88
2018-10-19T00:54:49.265Z,102464.04
2018-10-19T00:57:18.071Z,102466.95
2018-10-19T00:59:46.846Z,102466.62
2018-10-19T01:02:16.110Z,102471.47
2018-10-19T01:04:44.908Z,102467.13
2018-10-19T01:07:14.604Z,102471.68
2018-10-19T01:09:43.742Z,102465.19
2018-10-19T01:12:12.973Z,102470.59
2018-10-19T01:14:41.747Z,102473.53
2018-10-19T01:17:10.675Z,102469.78
2018-10-19T01:19:39.424Z,102470.84
2018-10-19T01:22:08.311Z,102463.28
2018-10-19T01:24:37.115Z,102463.54
2018-10-19T01:27:06.466Z,102466.50
2018-10-19T01:29:35.714Z,102470.50
2018-10-19T01:32:04.707Z,102470.75
2018-10-19T01:34:33.517Z,102464.80
2018-10-19T01:37:05.999Z,102459.36
2018-10-19T01:39:34.864Z,102458.73
2018-10-19T01:42:04.047Z,102453.55
2018-10-19T01:44:33.282Z,102466.02
2018-10-19T01:47:02.548Z,102467.89
2018-10-19T01:49:31.422Z,102465.69
2018-10-19T01:52:00.750Z,102460.00
2018-10-19T01:54:29.638Z,102468.39
2018-10-19T01:56:58.461Z,102471.92
2018-10-19T01:59:27.265Z,102475.97
2018-10-19T02:01:56.420Z,102477.87
2018-10-19T02:04:25.560Z,102472.44
2018-10-19T02:06:54.392Z,102476.23
2018-10-19T02:09:23.157Z,102474.03
2018-10-19T02:11:52.059Z,102460.75
2018-10-19T02:14:21.148Z,102460.50
2018-10-19T02:16:50.194Z,102476.48
2018-10-19T02:19:18.988Z,102471.38
2018-10-19T02:21:47.733Z,102469.83
2018-10-19T02:24:17.001Z,102472.77
2018-10-19T02:26:46.065Z,102470.08
2018-10-19T02:29:14.987Z,102475.22
2018-10-19T02:31:44.135Z,102477.41
2018-10-19T02:34:13.601Z,102468.18
2018-10-19T02:36:42.681Z,102477.66
2018-10-19T02:39:11.788Z,102476.91
2018-10-19T02:41:40.582Z,102475.80
2018-10-19T02:44:09.658Z,102467.13
2018-10-19T02:46:38.518Z,102467.97
2018-10-19T02:49:07.556Z,102469.66
2018-10-19T02:51:36.862Z,102467.25
2018-10-19T02:54:06.228Z,102468.34
2018-10-19T02:56:35.191Z,102456.16
2018-10-19T02:59:04.025Z,102465.69
2018-10-19T03:01:33.095Z,102471.13
2018-10-19T03:04:02.202Z,102468.68
2018-10-19T03:06:31.270Z,102473.36
2018-10-19T03:09:00.236Z,102471.80
2018-10-19T03:11:29.103Z,102468.38
2018-10-19T03:13:58.363Z,102467.33
2018-10-19T03:16:27.353Z,102467.03
2018-10-19T03:18:56.179Z,102468.16
2018-10-19T03:21:24.988Z,102470.91
2018-10-19T03:23:54.427Z,102472.52
2018-10-19T03:26:23.599Z,102474.99
2018-10-19T03:28:52.447Z,102470.73
2018-10-19T03:31:21.305Z,102471.28
2018-10-19T03:33:50.237Z,102467.59
2018-10-19T03:36:19.595Z,102468.69
2018-10-19T03:38:48.430Z,102463.58
2018-10-19T03:41:17.508Z,102471.42
2018-10-19T03:43:46.434Z,102463.58
2018-10-19T03:46:15.251Z,102463.87
2018-10-19T03:48:44.151Z,102457.92
2018-10-19T03:51:13.108Z,102454.42
2018-10-19T03:53:42.081Z,102453.63
2018-10-19T03:56:11.108Z,102460.12
2018-10-19T03:58:39.992Z,102463.58
2018-10-19T04:01:08.814Z,102469.27
2018-10-19T04:03:38.344Z,102470.63
2018-10-19T04:06:07.130Z,102473.06
2018-10-19T04:08:36.670Z,102479.82
2018-10-19T04:11:05.709Z,102473.06
2018-10-19T04:13:34.466Z,102468.18
2018-10-19T04:16:03.308Z,102462.34
2018-10-19T04:18:32.094Z,102465.30
2018-10-19T04:21:01.605Z,102459.02
2018-10-19T04:23:30.675Z,102465.52
2018-10-19T04:26:00.026Z,102462.34
2018-10-19T04:28:28.877Z,102458.28
2018-10-19T04:30:57.951Z,102460.12
2018-10-19T04:33:28.370Z,102453.11
2018-10-19T04:35:57.295Z,102458.28
2018-10-19T04:38:26.457Z,102457.74
2018-10-19T04:40:55.546Z,102454.82
2018-10-19T04:43:24.803Z,102447.74
2018-10-19T04:45:54.011Z,102446.69
2018-10-19T04:48:22.933Z,102453.18
2018-10-19T04:50:51.692Z,102457.01
2018-10-19T04:53:20.525Z,102456.75
2018-10-19T04:55:49.302Z,102448.39
2018-10-19T04:58:18.147Z,102453.25
2018-10-19T05:00:47.212Z,102453.28
2018-10-19T05:03:16.353Z,102454.34
2018-10-19T05:05:45.168Z,102456.28
2018-10-19T05:08:13.999Z,102458.69
2018-10-19T05:10:42.759Z,102457.88
2018-10-19T05:13:11.653Z,102461.09
2018-10-19T05:15:40.813Z,102465.14
2018-10-19T05:18:09.907Z,102464.05
2018-10-19T05:20:38.654Z,102464.86
2018-10-19T05:23:07.703Z,102462.92
2018-10-19T05:25:36.428Z,102462.38
2018-10-19T05:28:05.283Z,102473.69
2018-10-19T05:30:34.360Z,102466.13
2018-10-19T05:33:03.566Z,102475.08
2018-10-19T05:35:32.267Z,102476.39
2018-10-19T05:38:01.417Z,102478.58
2018-10-19T05:40:30.197Z,102470.18
2018-10-19T05:42:59.056Z,102473.69
2018-10-19T05:45:27.960Z,102476.39
2018-10-19T05:47:57.025Z,102474.23
2018-10-19T05:50:25.792Z,102479.38
2018-10-19T05:52:54.614Z,102480.77
2018-10-19T05:55:23.677Z,102481.83
2018-10-19T05:57:52.480Z,102486.67
2018-10-19T06:00:21.598Z,102483.98
2018-10-19T06:02:50.358Z,102481.50
2018-10-19T06:05:25.618Z,102483.94
2018-10-19T06:07:54.468Z,102488.58
2018-10-19T06:10:23.256Z,102489.67
2018-10-19T06:12:52.022Z,102492.16
2018-10-19T06:15:20.915Z,102499.16
2018-10-19T06:17:49.709Z,102498.36
2018-10-19T06:20:19.144Z,102503.50
2018-10-19T06:22:48.162Z,102500.03
2018-10-19T06:25:16.992Z,102509.75
2018-10-19T06:27:45.771Z,102511.97
2018-10-19T06:30:15.066Z,102519.23
2018-10-19T06:32:44.447Z,102527.09
2018-10-19T06:35:13.604Z,102520.91
2018-10-19T06:37:42.403Z,102519.60
2018-10-19T06:40:11.409Z,102525.04
2018-10-19T06:42:40.357Z,102524.24
2018-10-19T06:45:09.269Z,102528.11
2018-10-19T06:47:38.328Z,102530.30
2018-10-19T06:50:09.336Z,102527.92
2018-10-19T06:52:38.184Z,102524.13
2018-10-19T06:55:08.778Z,102526.61
2018-10-19T06:57:37.847Z,102524.78
2018-10-19T07:00:06.826Z,102532.66
2018-10-19T07:02:35.699Z,102531.64
2018-10-19T07:05:05.220Z,102529.22
2018-10-19T07:07:34.401Z,102530.91
2018-10-19T07:10:03.215Z,102533.38
2018-10-19T07:12:31.971Z,102531.03
2018-10-19T07:15:01.167Z,102532.93
2018-10-19T07:17:30.068Z,102528.10
2018-10-19T07:19:59.536Z,102532.70
2018-10-19T07:22:28.787Z,102528.42
2018-10-19T07:24:58.327Z,102534.95
2018-10-19T07:27:27.463Z,102535.80
2018-10-19T07:29:56.364Z,102538.81
2018-10-19T07:32:25.923Z,102536.14
2018-10-19T07:34:55.696Z,102536.75
2018-10-19T07:37:24.649Z,102537.32
2018-10-19T07:39:53.526Z,102541.98
2018-10-19T07:42:22.820Z,102536.86
2018-10-19T07:44:51.610Z,102541.23
2018-10-19T07:47:20.900Z,102545.89
2018-10-19T07:49:50.065Z,102539.19
2018-10-19T07:52:19.110Z,102545.45
2018-10-19T07:54:48.080Z,102545.77
2018-10-19T07:57:17.282Z,102553.11
2018-10-19T07:59:46.104Z,102546.94
2018-10-19T08:02:15.317Z,102548.58
2018-10-19T08:04:44.645Z,102548.89
2018-10-19T08:07:13.428Z,102542.45
2018-10-19T08:09:42.244Z,102543.33
2018-10-19T08:12:11.155Z,102538.50
2018-10-19T08:14:40.331Z,102539.08
2018-10-19T08:17:09.204Z,102543.18
2018-10-19T08:19:38.051Z,102546.19
2018-10-19T08:22:06.858Z,102535.42
2018-10-19T08:24:35.608Z,102531.09
2018-10-19T08:27:04.439Z,102534.69
2018-10-19T08:29:33.198Z,102535.81
2018-10-19T08:32:02.030Z,102533.14
2018-10-19T08:34:30.826Z,102533.98
2018-10-19T08:36:59.636Z,102538.06
2018-10-19T08:39:29.044Z,102533.77
2018-10-19T08:41:57.811Z,102536.77
2018-10-19T08:44:26.903Z,102539.27
2018-10-19T08:46:56.041Z,102537.41
2018-10-19T08:49:24.945Z,102526.09
2018-10-19T08:51:53.707Z,102525.84
2018-10-19T08:54:22.538Z,102532.64
2018-10-19T08:56:51.455Z,102523.41
2018-10-19T08:59:20.316Z,102514.22
2018-10-19T09:01:49.341Z,102517.50
2018-10-19T09:04:18.455Z,102516.18
2018-10-19T09:06:47.632Z,102519.73
2018-10-19T09:09:16.678Z,102530.33
2018-10-19T09:11:45.597Z,102528.98
2018-10-19T09:14:25.504Z,102527.08
2018-10-19T09:16:54.444Z,102524.38
2018-10-19T09:19:23.502Z,102526.31
2018-10-19T09:21:52.607Z,102526.05
2018-10-19T09:24:21.519Z,102526.34
2018-10-19T09:26:50.331Z,102519.56
2018-10-19T09:29:19.191Z,102521.45
2018-10-19T09:31:48.227Z,102514.66
2018-10-19T09:34:17.368Z,102512.47
2018-10-19T09:36:46.210Z,102516.26
2018-10-19T09:39:15.448Z,102518.42
2018-10-19T09:41:44.511Z,102515.69
2018-10-19T09:44:13.407Z,102512.41
2018-10-19T09:46:42.583Z,102515.38
2018-10-19T09:49:12.795Z,102504.47
2018-10-19T09:51:42.007Z,102496.52
2018-10-19T09:54:12.202Z,102498.66
2018-10-19T09:56:41.026Z,102503.27
2018-10-19T09:59:10.438Z,102498.06
2018-10-19T10:01:40.283Z,102501.81
2018-10-19T10:04:09.383Z,102500.69
2018-10-19T10:06:38.188Z,102504.98
2018-10-19T10:09:14.931Z,102508.23
2018-10-19T10:11:43.667Z,102504.89
2018-10-19T10:14:12.577Z,102508.65
2018-10-19T10:16:41.421Z,102499.87
2018-10-19T10:19:10.614Z,102500.89
2018-10-19T10:21:39.905Z,102493.13
2018-10-19T10:24:08.814Z,102498.21
2018-10-19T10:26:37.649Z,102500.83
2018-10-19T10:29:06.914Z,102487.60
2018-10-19T10:31:36.748Z,102502.69
2018-10-19T10:34:06.189Z,102495.20
2018-10-19T10:36:35.450Z,102496.19
2018-10-19T10:39:05.132Z,102502.93
2018-10-19T10:41:33.867Z,102504.66
2018-10-19T10:44:02.695Z,102500.17
2018-10-19T10:46:31.517Z,102498.69
2018-10-19T10:49:00.872Z,102495.53
2018-10-19T10:51:29.781Z,102489.06
2018-10-19T10:53:59.021Z,102484.27
2018-10-19T10:56:27.793Z,102486.12
2018-10-19T10:58:56.687Z,102476.19
2018-10-19T11:01:25.765Z,102480.24
2018-10-19T11:03:54.925Z,102474.17
2018-10-19T11:06:23.724Z,102471.55
2018-10-19T11:08:52.634Z,102466.20
2018-10-19T11:11:21.618Z,102469.42
2018-10-19T11:13:50.417Z,102470.52
2018-10-19T11:16:19.491Z,102467.22
2018-10-19T11:18:48.365Z,102465.27
2018-10-19T11:21:17.100Z,102464.97
2018-10-19T11:23:46.782Z,102461.06
2018-10-19T11:26:15.627Z,102457.66
2018-10-19T11:28:44.473Z,102460.40
2018-10-19T11:31:13.446Z,102461.42
2018-10-19T11:33:42.251Z,102457.09
2018-10-19T11:36:14.418Z,102453.97
2018-10-19T11:38:43.504Z,102456.62
2018-10-19T11:41:12.412Z,102457.50
2018-10-19T11:43:41.184Z,102458.77
2018-10-19T11:46:10.462Z,102458.20
2018-10-19T11:48:39.411Z,102453.75
2018-10-19T11:51:08.192Z,102460.79
2018-10-19T11:53:36.974Z,102457.75
2018-10-19T11:56:05.906Z,102458.81
2018-10-19T11:58:34.843Z,102451.94
2018-10-19T12:01:03.688Z,102447.22
2018-10-19T12:03:32.485Z,102446.34
2018-10-19T12:06:01.359Z,102449.52
2018-10-19T12:08:30.743Z,102449.44
2018-10-19T12:10:59.476Z,102445.73
2018-10-19T12:13:28.358Z,102445.28
2018-10-19T12:15:57.211Z,102448.40
2018-10-19T12:18:25.967Z,102441.87
2018-10-19T12:20:54.903Z,102435.97
2018-10-19T12:23:23.674Z,102436.59
2018-10-19T12:25:52.785Z,102437.25
2018-10-19T12:28:21.852Z,102443.30
2018-10-19T12:30:50.861Z,102439.37
2018-10-19T12:33:19.715Z,102439.55
2018-10-19T12:35:48.468Z,102438.30
2018-10-19T12:38:18.034Z,102440.78
2018-10-19T12:40:46.866Z,102440.99
2018-10-19T12:43:15.833Z,102433.37
2018-10-19T12:46:22.007Z,102431.04
2018-10-19T12:48:51.142Z,102432.10
2018-10-19T12:51:20.843Z,102433.53
2018-10-19T12:53:50.047Z,102428.08
2018-10-19T12:56:19.778Z,102431.61
2018-10-19T12:58:49.613Z,102432.92
2018-10-19T13:01:19.094Z,102430.50
2018-10-19T13:03:47.974Z,102426.36
2018-10-19T13:06:17.102Z,102425.88
2018-10-19T13:08:45.858Z,102420.84
2018-10-19T13:11:15.340Z,102419.52
2018-10-19T13:13:44.789Z,102422.47
2018-10-19T13:16:13.854Z,102422.00
2018-10-19T13:18:42.782Z,102413.62
2018-10-19T13:21:11.755Z,102417.18
2018-10-19T13:23:40.866Z,102412.06
2018-10-19T13:26:10.203Z,102409.29
2018-10-19T13:28:39.087Z,102405.90
2018-10-19T13:31:08.388Z,102409.73
2018-10-19T13:33:37.232Z,102415.55
2018-10-19T13:36:06.450Z,102412.49
2018-10-19T13:38:35.546Z,102399.32
2018-10-19T13:41:04.536Z,102402.21
2018-10-19T13:43:33.676Z,102391.41
2018-10-19T13:46:02.504Z,102396.00
2018-10-19T13:48:31.306Z,102392.13
2018-10-19T13:51:00.223Z,102391.82
2018-10-19T13:53:29.396Z,102387.68
2018-10-19T13:55:58.646Z,102381.38
2018-10-19T13:58:27.814Z,102378.66
2018-10-19T14:00:56.512Z,102378.16
2018-10-19T14:03:25.334Z,102378.47
2018-10-19T14:05:54.215Z,102385.82
2018-10-19T14:08:23.204Z,102378.42
2018-10-19T14:10:52.109Z,102366.38
2018-10-19T14:13:21.390Z,102376.96
2018-10-19T14:15:50.235Z,102369.70
2018-10-19T14:18:19.352Z,102372.55
2018-10-19T14:20:48.179Z,102367.74
2018-10-19T14:23:17.286Z,102365.46
2018-10-19T14:25:45.986Z,102377.04
2018-10-19T14:28:15.191Z,102374.67
2018-10-19T14:30:44.683Z,102374.19
2018-10-19T14:33:13.502Z,102379.78
2018-10-19T14:35:42.338Z,102373.36
2018-10-19T14:38:11.778Z,102378.58
2018-10-19T14:40:40.538Z,102383.33
2018-10-19T14:43:09.589Z,102376.19
2018-10-19T14:45:38.403Z,102367.59
2018-10-19T14:48:07.246Z,102375.42
2018-10-19T14:50:36.140Z,102379.75
2018-10-19T14:53:05.451Z,102372.52
2018-10-19T14:55:34.319Z,102379.25
2018-10-19T14:58:03.355Z,102383.70
2018-10-19T15:00:32.577Z,102384.72
2018-10-19T15:03:01.960Z,102391.39
2018-10-19T15:05:31.002Z,102382.17
2018-10-19T15:08:00.479Z,102381.34
2018-10-19T15:10:29.442Z,102376.23
2018-10-19T15:12:58.255Z,102380.14
2018-10-19T15:15:27.339Z,102376.58
2018-10-19T15:17:56.664Z,102377.86
2018-10-19T15:20:25.628Z,102375.43
2018-10-19T15:22:54.465Z,102375.86
2018-10-19T15:25:24.039Z,102370.53
2018-10-19T15:27:52.812Z,102370.39
2018-10-19T15:30:21.779Z,102368.53
2018-10-19T15:32:50.878Z,102365.63
2018-10-19T15:35:26.281Z,102371.43
2018-10-19T15:37:55.111Z,102372.62
2018-10-19T15:40:23.921Z,102370.61
2018-10-19T15:42:52.861Z,102371.22
2018-10-19T15:45:23.228Z,102369.28
2018-10-19T15:47:52.163Z,102372.39
2018-10-19T15:50:21.432Z,102361.81
2018-10-19T15:52:50.566Z,102365.95
2018-10-19T15:55:19.382Z,102370.68
2018-10-19T15:57:48.240Z,102377.02
2018-10-19T16:00:17.365Z,102379.80
2018-10-19T16:02:46.278Z,102379.24
2018-10-19T16:05:15.106Z,102375.15
2018-10-19T16:07:44.391Z,102364.03
2018-10-19T16:10:13.519Z,102369.00
2018-10-19T16:12:42.433Z,102375.36
2018-10-19T16:15:12.511Z,102374.62
2018-10-19T16:17:41.336Z,102377.16
2018-10-19T16:20:10.862Z,102373.16
2018-10-19T16:22:39.672Z,102374.72
2018-10-19T16:25:16.350Z,102381.12
2018-10-19T16:27:45.425Z,102382.33
2018-10-19T16:30:14.335Z,102380.28
2018-10-19T16:32:43.168Z,102387.98
2018-10-19T16:35:12.157Z,102395.89
2018-10-19T16:37:41.019Z,102394.87
2018-10-19T16:40:10.066Z,102403.07
2018-10-19T16:42:38.842Z,102414.80
2018-10-19T16:45:08.327Z,102421.31
2018-10-19T16:47:37.038Z,102422.76
2018-10-19T16:50:05.971Z,102420.91
2018-10-19T16:52:34.819Z,102419.30
2018-10-19T16:55:03.998Z,102420.48
2018-10-19T16:57:33.398Z,102419.45
2018-10-19T17:00:02.562Z,102423.85
2018-10-19T17:02:31.632Z,102427.69
2018-10-19T17:05:00.762Z,102437.55
2018-10-19T17:07:29.682Z,102440.59
2018-10-19T17:09:58.603Z,102449.11
2018-10-19T17:12:27.678Z,102457.89
2018-10-19T17:14:56.969Z,102457.36
2018-10-19T17:17:26.073Z,102454.16
2018-10-19T17:19:55.099Z,102453.39
2018-10-19T17:22:24.397Z,102461.02
2018-10-19T17:24:53.490Z,102457.79
2018-10-19T17:27:22.841Z,102464.33
2018-10-19T17:29:51.890Z,102465.16
2018-10-19T17:32:20.955Z,102467.34
2018-10-19T17:34:50.135Z,102467.92
2018-10-19T17:37:20.148Z,102456.80
2018-10-19T17:39:49.286Z,102460.90
2018-10-19T17:42:18.592Z,102462.02
2018-10-19T17:44:47.520Z,102466.12
2018-10-19T17:47:16.422Z,102480.24
2018-10-19T17:49:45.270Z,102478.36
2018-10-19T17:52:14.432Z,102472.39
2018-10-19T17:54:43.631Z,102477.32
2018-10-19T17:57:12.621Z,102474.90
2018-10-19T17:59:41.573Z,102475.99
2018-10-19T18:02:10.754Z,102476.03
2018-10-19T18:04:39.793Z,102470.05
2018-10-19T18:07:09.323Z,102477.69
2018-10-19T18:09:38.272Z,102482.05
2018-10-19T18:12:07.039Z,102483.13
2018-10-19T18:14:36.414Z,102473.91
2018-10-19T18:17:05.531Z,102488.02
2018-10-19T18:19:34.633Z,102493.45
2018-10-19T18:22:03.556Z,102493.20
2018-10-19T18:24:32.605Z,102496.20
2018-10-19T18:27:01.362Z,102488.58
2018-10-19T18:29:30.766Z,102489.93
2018-10-19T18:31:59.975Z,102494.56
2018-10-19T18:34:28.880Z,102494.31
2018-10-19T18:36:58.019Z,102495.91
2018-10-19T18:39:27.607Z,102496.74
2018-10-19T18:41:56.704Z,102493.22
2018-10-19T18:44:26.339Z,102493.45
2018-10-19T18:46:56.084Z,102493.98
2018-10-19T18:49:25.895Z,102486.94
2018-10-19T18:51:56.242Z,102485.57
2018-10-19T18:54:27.260Z,102499.41
2018-10-19T18:56:58.284Z,102503.75
2018-10-19T18:59:28.689Z,102512.16
2018-10-19T19:01:59.278Z,102519.73
2018-10-19T19:04:29.360Z,102515.12
2018-10-19T19:06:59.387Z,102510.77
2018-10-19T19:09:29.554Z,102514.02
2018-10-19T19:12:00.311Z,102520.49
2018-10-19T19:14:31.080Z,102514.25
2018-10-19T19:17:01.769Z,102512.05
2018-10-19T19:19:32.025Z,102513.16
2018-10-19T19:22:02.900Z,102518.58
2018-10-19T19:24:38.433Z,102532.13
2018-10-19T19:27:08.553Z,102540.77
2018-10-19T19:29:39.099Z,102538.33
2018-10-19T19:32:09.212Z,102536.44
2018-10-19T19:34:39.728Z,102548.08
2018-10-19T19:37:09.401Z,102542.36
2018-10-19T19:39:38.772Z,102548.89
2018-10-19T19:43:12.712Z,102550.75
2018-10-19T19:45:42.370Z,102561.06
2018-10-19T19:48:16.633Z,102559.69
2018-10-19T19:50:46.221Z,102564.55
2018-10-19T19:53:16.803Z,102565.65
2018-10-19T19:55:46.328Z,102565.88
2018-10-19T19:58:15.285Z,102572.41
2018-10-19T20:00:44.662Z,102566.70
2018-10-19T20:03:13.455Z,102564.52
2018-10-19T20:05:42.409Z,102571.31
2018-10-19T20:08:11.554Z,102561.23
2018-10-19T20:10:40.827Z,102559.88
2018-10-19T20:13:09.570Z,102555.53
2018-10-19T20:15:38.392Z,102554.16
2018-10-19T20:18:07.776Z,102566.09
2018-10-19T20:20:36.564Z,102562.25
2018-10-19T20:23:05.856Z,102558.74
2018-10-19T20:25:34.704Z,102565.23
2018-10-19T20:28:03.610Z,102569.56
2018-10-19T20:30:32.662Z,102571.47
2018-10-19T20:33:01.503Z,102575.52
2018-10-19T20:35:30.351Z,102572.23
2018-10-19T20:37:59.823Z,102578.74
2018-10-19T20:40:28.708Z,102577.91
2018-10-19T20:42:57.876Z,102570.83
2018-10-19T20:45:26.737Z,102574.91
2018-10-19T20:47:55.590Z,102570.27
2018-10-19T20:50:24.578Z,102567.28
2018-10-19T20:52:53.678Z,102571.88
2018-10-19T20:55:22.950Z,102567.79
2018-10-19T20:57:51.739Z,102565.04
2018-10-19T21:00:21.552Z,102562.27
2018-10-19T21:02:50.310Z,102561.94
2018-10-19T21:05:19.092Z,102568.95
2018-10-19T21:07:54.127Z,102577.28
2018-10-19T21:10:23.011Z,102575.91
2018-10-19T21:12:51.901Z,102571.80
2018-10-19T21:15:20.948Z,102575.82
2018-10-19T21:17:49.840Z,102576.55
2018-10-19T21:20:19.188Z,102573.83
2018-10-19T21:22:47.961Z,102569.71
2018-10-19T21:25:16.774Z,102568.82
2018-10-19T21:27:46.185Z,102578.78
2018-10-19T21:30:15.322Z,102580.09
2018-10-19T21:32:44.130Z,102575.74
2018-10-19T21:35:13.464Z,102571.08
2018-10-19T21:37:44.073Z,102580.48
2018-10-19T21:40:13.953Z,102582.59
2018-10-19T21:42:43.730Z,102591.45
2018-10-19T21:45:13.865Z,102588.71
2018-10-19T21:47:43.706Z,102584.37
2018-10-19T21:50:12.965Z,102589.74
2018-10-19T21:52:41.890Z,102589.16
2018-10-19T21:55:12.158Z,102581.56
2018-10-19T21:57:41.127Z,102577.77
2018-10-19T22:00:10.858Z,102583.44
2018-10-19T22:02:39.610Z,102586.10
2018-10-19T22:05:09.163Z,102594.47
2018-10-19T22:07:38.020Z,102603.91
2018-10-19T22:10:06.913Z,102595.76
2018-10-19T22:12:35.834Z,102584.07
2018-10-19T22:15:04.725Z,102576.19
2018-10-19T22:17:33.794Z,102580.72
2018-10-19T22:20:03.074Z,102596.87
2018-10-19T22:22:31.826Z,102609.21
2018-10-19T22:25:00.834Z,102607.83
2018-10-19T22:27:30.280Z,102614.25
2018-10-19T22:29:59.188Z,102616.95
2018-10-19T22:32:28.085Z,102618.73
2018-10-19T22:34:56.917Z,102619.79
2018-10-19T22:37:25.780Z,102613.22
2018-10-19T22:39:54.727Z,102612.63
2018-10-19T22:42:23.782Z,102614.19
2018-10-19T22:44:52.918Z,102610.86
2018-10-19T22:47:21.879Z,102624.83
2018-10-19T22:49:51.042Z,102621.80
2018-10-19T22:52:19.795Z,102618.53
2018-10-19T22:54:49.142Z,102617.91
2018-10-19T22:57:18.351Z,102617.36
2018-10-19T22:59:47.396Z,102617.28
2018-10-19T23:02:16.511Z,102616.65
2018-10-19T23:04:45.647Z,102609.59
2018-10-19T23:07:14.578Z,102613.55
2018-10-19T23:09:43.860Z,102606.72
2018-10-19T23:12:12.707Z,102610.17
2018-10-19T23:14:41.530Z,102620.04
2018-10-19T23:17:11.267Z,102616.14
2018-10-19T23:19:40.298Z,102610.66
2018-10-19T23:22:10.011Z,102618.15
2018-10-19T23:24:39.206Z,102612.70
2018-10-19T23:27:08.308Z,102613.20
2018-10-19T23:29:37.061Z,102622.25
2018-10-19T23:32:06.136Z,102636.75
2018-10-19T23:34:34.965Z,102632.58
2018-10-19T23:37:03.852Z,102633.87
2018-10-19T23:39:35.676Z,102632.19
2018-10-19T23:42:04.580Z,102635.08
2018-10-19T23:44:33.574Z,102643.87
2018-10-19T23:47:02.396Z,102635.73
2018-10-19T23:49:31.495Z,102645.66
2018-10-19T23:52:00.207Z,102638.56
2018-10-19T23:54:29.420Z,102644.69
2018-10-19T23:56:58.271Z,102637.98
2018-10-19T23:59:27.142Z,102637.68
